sensor_id;sensor_type;location;lat;lon;timestamp;P1;durP1;ratioP1;P2;durP2;ratioP2
33495;SDS011;19836;55.812;37.560;2024-03-17T00:00:02;16.90;;;4.78;;
33495;SDS011;19836;55.812;37.560;2024-03-17T00:02:31;28.42;;;5.13;;
33495;SDS011;19836;55.812;37.560;2024-03-17T00:04:57;22.35;;;5.30;;
33495;SDS011;19836;55.812;37.560;2024-03-17T00:07:23;19.33;;;5.40;;
33495;SDS011;19836;55.812;37.560;2024-03-17T00:09:48;18.15;;;4.43;;
33495;SDS011;19836;55.812;37.560;2024-03-17T00:12:14;20.35;;;6.72;;
33495;SDS011;19836;55.812;37.560;2024-03-17T00:14:40;20.55;;;5.63;;
33495;SDS011;19836;55.812;37.560;2024-03-17T00:17:08;26.70;;;6.05;;
33495;SDS011;19836;55.812;37.560;2024-03-17T00:19:34;26.50;;;5.85;;
33495;SDS011;19836;55.812;37.560;2024-03-17T00:22:00;19.73;;;5.22;;
33495;SDS011;19836;55.812;37.560;2024-03-17T00:24:26;23.92;;;6.03;;
33495;SDS011;19836;55.812;37.560;2024-03-17T00:26:53;14.10;;;5.97;;
33495;SDS011;19836;55.812;37.560;2024-03-17T00:29:19;25.05;;;6.20;;
33495;SDS011;19836;55.812;37.560;2024-03-17T00:31:45;16.60;;;5.30;;
33495;SDS011;19836;55.812;37.560;2024-03-17T00:34:10;23.55;;;5.90;;
33495;SDS011;19836;55.812;37.560;2024-03-17T00:36:36;20.75;;;5.88;;
33495;SDS011;19836;55.812;37.560;2024-03-17T00:39:03;14.43;;;5.25;;
33495;SDS011;19836;55.812;37.560;2024-03-17T00:41:29;18.38;;;4.85;;
33495;SDS011;19836;55.812;37.560;2024-03-17T00:43:55;22.10;;;5.90;;
33495;SDS011;19836;55.812;37.560;2024-03-17T00:46:21;19.48;;;5.85;;
33495;SDS011;19836;55.812;37.560;2024-03-17T00:48:50;25.95;;;5.95;;
33495;SDS011;19836;55.812;37.560;2024-03-17T00:51:16;22.65;;;5.80;;
33495;SDS011;19836;55.812;37.560;2024-03-17T00:53:42;18.98;;;5.63;;
33495;SDS011;19836;55.812;37.560;2024-03-17T00:56:08;18.60;;;5.20;;
33495;SDS011;19836;55.812;37.560;2024-03-17T00:58:34;19.02;;;5.53;;
33495;SDS011;19836;55.812;37.560;2024-03-17T01:01:00;19.45;;;6.00;;
33495;SDS011;19836;55.812;37.560;2024-03-17T01:03:27;21.67;;;6.35;;
33495;SDS011;19836;55.812;37.560;2024-03-17T01:05:53;16.88;;;5.38;;
33495;SDS011;19836;55.812;37.560;2024-03-17T01:08:19;15.60;;;5.65;;
33495;SDS011;19836;55.812;37.560;2024-03-17T01:10:46;19.40;;;6.75;;
33495;SDS011;19836;55.812;37.560;2024-03-17T01:13:15;25.25;;;5.90;;
33495;SDS011;19836;55.812;37.560;2024-03-17T01:15:41;25.13;;;6.22;;
33495;SDS011;19836;55.812;37.560;2024-03-17T01:18:07;18.92;;;5.35;;
33495;SDS011;19836;55.812;37.560;2024-03-17T01:20:37;22.33;;;6.45;;
33495;SDS011;19836;55.812;37.560;2024-03-17T01:23:04;21.92;;;6.45;;
33495;SDS011;19836;55.812;37.560;2024-03-17T01:25:30;20.83;;;5.80;;
33495;SDS011;19836;55.812;37.560;2024-03-17T01:28:04;17.85;;;6.07;;
33495;SDS011;19836;55.812;37.560;2024-03-17T01:30:30;23.25;;;6.10;;
33495;SDS011;19836;55.812;37.560;2024-03-17T01:32:58;20.48;;;6.15;;
33495;SDS011;19836;55.812;37.560;2024-03-17T01:35:27;23.05;;;6.20;;
33495;SDS011;19836;55.812;37.560;2024-03-17T01:37:53;27.73;;;7.00;;
33495;SDS011;19836;55.812;37.560;2024-03-17T01:40:19;17.02;;;6.35;;
33495;SDS011;19836;55.812;37.560;2024-03-17T01:42:46;24.92;;;6.75;;
33495;SDS011;19836;55.812;37.560;2024-03-17T01:45:28;20.10;;;6.38;;
33495;SDS011;19836;55.812;37.560;2024-03-17T01:47:56;22.40;;;6.22;;
33495;SDS011;19836;55.812;37.560;2024-03-17T01:50:26;23.10;;;7.18;;
33495;SDS011;19836;55.812;37.560;2024-03-17T01:52:58;25.85;;;7.75;;
33495;SDS011;19836;55.812;37.560;2024-03-17T01:55:27;21.83;;;7.18;;
33495;SDS011;19836;55.812;37.560;2024-03-17T01:57:53;27.13;;;6.65;;
33495;SDS011;19836;55.812;37.560;2024-03-17T02:00:20;23.70;;;6.22;;
33495;SDS011;19836;55.812;37.560;2024-03-17T02:02:46;28.25;;;6.70;;
33495;SDS011;19836;55.812;37.560;2024-03-17T02:05:13;19.85;;;6.45;;
33495;SDS011;19836;55.812;37.560;2024-03-17T02:07:39;25.08;;;6.85;;
33495;SDS011;19836;55.812;37.560;2024-03-17T02:10:06;19.80;;;6.15;;
33495;SDS011;19836;55.812;37.560;2024-03-17T02:12:40;24.35;;;6.97;;
33495;SDS011;19836;55.812;37.560;2024-03-17T02:15:06;23.15;;;6.75;;
33495;SDS011;19836;55.812;37.560;2024-03-17T02:17:33;19.80;;;5.65;;
33495;SDS011;19836;55.812;37.560;2024-03-17T02:20:00;20.55;;;6.78;;
33495;SDS011;19836;55.812;37.560;2024-03-17T02:22:26;23.75;;;7.15;;
33495;SDS011;19836;55.812;37.560;2024-03-17T02:24:55;23.40;;;6.72;;
33495;SDS011;19836;55.812;37.560;2024-03-17T02:27:22;33.20;;;6.63;;
33495;SDS011;19836;55.812;37.560;2024-03-17T02:29:48;21.25;;;7.55;;
33495;SDS011;19836;55.812;37.560;2024-03-17T02:32:14;28.70;;;7.13;;
33495;SDS011;19836;55.812;37.560;2024-03-17T02:34:40;20.17;;;6.40;;
33495;SDS011;19836;55.812;37.560;2024-03-17T02:37:06;25.02;;;7.32;;
33495;SDS011;19836;55.812;37.560;2024-03-17T02:39:33;24.95;;;7.00;;
33495;SDS011;19836;55.812;37.560;2024-03-17T02:42:03;26.10;;;7.22;;
33495;SDS011;19836;55.812;37.560;2024-03-17T02:44:31;23.35;;;6.78;;
33495;SDS011;19836;55.812;37.560;2024-03-17T02:46:57;26.05;;;7.07;;
33495;SDS011;19836;55.812;37.560;2024-03-17T02:49:27;24.38;;;6.65;;
33495;SDS011;19836;55.812;37.560;2024-03-17T02:52:01;21.15;;;6.75;;
33495;SDS011;19836;55.812;37.560;2024-03-17T02:54:27;17.83;;;6.22;;
33495;SDS011;19836;55.812;37.560;2024-03-17T02:56:52;23.80;;;6.93;;
33495;SDS011;19836;55.812;37.560;2024-03-17T02:59:18;29.75;;;6.95;;
33495;SDS011;19836;55.812;37.560;2024-03-17T03:01:44;24.05;;;6.90;;
33495;SDS011;19836;55.812;37.560;2024-03-17T03:04:11;21.58;;;6.55;;
33495;SDS011;19836;55.812;37.560;2024-03-17T03:06:37;25.02;;;7.32;;
33495;SDS011;19836;55.812;37.560;2024-03-17T03:09:03;22.77;;;7.53;;
33495;SDS011;19836;55.812;37.560;2024-03-17T03:11:38;17.15;;;7.13;;
33495;SDS011;19836;55.812;37.560;2024-03-17T03:14:05;30.52;;;7.57;;
33495;SDS011;19836;55.812;37.560;2024-03-17T03:16:31;19.90;;;6.95;;
33495;SDS011;19836;55.812;37.560;2024-03-17T03:18:57;20.25;;;8.35;;
33495;SDS011;19836;55.812;37.560;2024-03-17T03:21:23;25.95;;;7.53;;
33495;SDS011;19836;55.812;37.560;2024-03-17T03:23:49;25.30;;;7.55;;
33495;SDS011;19836;55.812;37.560;2024-03-17T03:26:14;22.10;;;7.47;;
33495;SDS011;19836;55.812;37.560;2024-03-17T03:28:40;25.85;;;7.38;;
33495;SDS011;19836;55.812;37.560;2024-03-17T03:31:10;21.38;;;6.65;;
33495;SDS011;19836;55.812;37.560;2024-03-17T03:33:41;18.42;;;6.13;;
33495;SDS011;19836;55.812;37.560;2024-03-17T03:36:11;23.40;;;7.47;;
33495;SDS011;19836;55.812;37.560;2024-03-17T03:41:08;19.35;;;6.75;;
33495;SDS011;19836;55.812;37.560;2024-03-17T03:43:40;27.38;;;7.60;;
33495;SDS011;19836;55.812;37.560;2024-03-17T03:46:07;21.42;;;7.18;;
33495;SDS011;19836;55.812;37.560;2024-03-17T03:48:33;25.58;;;7.82;;
33495;SDS011;19836;55.812;37.560;2024-03-17T03:51:06;30.23;;;6.97;;
33495;SDS011;19836;55.812;37.560;2024-03-17T03:53:33;15.10;;;6.95;;
33495;SDS011;19836;55.812;37.560;2024-03-17T03:56:00;20.38;;;7.10;;
33495;SDS011;19836;55.812;37.560;2024-03-17T03:58:34;25.13;;;7.65;;
33495;SDS011;19836;55.812;37.560;2024-03-17T04:01:04;20.63;;;7.60;;
33495;SDS011;19836;55.812;37.560;2024-03-17T04:03:32;21.60;;;7.53;;
33495;SDS011;19836;55.812;37.560;2024-03-17T04:06:05;19.52;;;7.72;;
33495;SDS011;19836;55.812;37.560;2024-03-17T04:08:36;27.25;;;7.72;;
33495;SDS011;19836;55.812;37.560;2024-03-17T04:11:03;20.58;;;7.82;;
33495;SDS011;19836;55.812;37.560;2024-03-17T04:13:30;27.38;;;8.82;;
33495;SDS011;19836;55.812;37.560;2024-03-17T04:15:56;19.63;;;8.00;;
33495;SDS011;19836;55.812;37.560;2024-03-17T04:18:27;22.98;;;7.95;;
33495;SDS011;19836;55.812;37.560;2024-03-17T04:20:57;25.50;;;9.65;;
33495;SDS011;19836;55.812;37.560;2024-03-17T04:23:27;18.52;;;8.80;;
33495;SDS011;19836;55.812;37.560;2024-03-17T04:25:53;22.55;;;8.20;;
33495;SDS011;19836;55.812;37.560;2024-03-17T04:28:19;21.58;;;8.13;;
33495;SDS011;19836;55.812;37.560;2024-03-17T04:30:45;31.60;;;9.25;;
33495;SDS011;19836;55.812;37.560;2024-03-17T04:33:14;21.17;;;8.18;;
33495;SDS011;19836;55.812;37.560;2024-03-17T04:35:42;16.05;;;8.15;;
33495;SDS011;19836;55.812;37.560;2024-03-17T04:38:08;19.33;;;8.90;;
33495;SDS011;19836;55.812;37.560;2024-03-17T04:40:35;21.63;;;8.90;;
33495;SDS011;19836;55.812;37.560;2024-03-17T04:43:05;30.55;;;9.98;;
33495;SDS011;19836;55.812;37.560;2024-03-17T04:45:31;29.38;;;9.02;;
33495;SDS011;19836;55.812;37.560;2024-03-17T04:47:57;24.00;;;9.05;;
33495;SDS011;19836;55.812;37.560;2024-03-17T04:50:23;21.92;;;9.18;;
33495;SDS011;19836;55.812;37.560;2024-03-17T04:52:49;19.73;;;8.60;;
33495;SDS011;19836;55.812;37.560;2024-03-17T04:55:15;27.70;;;9.63;;
33495;SDS011;19836;55.812;37.560;2024-03-17T04:57:43;24.38;;;9.45;;
33495;SDS011;19836;55.812;37.560;2024-03-17T05:00:10;22.65;;;8.43;;
33495;SDS011;19836;55.812;37.560;2024-03-17T05:02:39;21.10;;;9.07;;
33495;SDS011;19836;55.812;37.560;2024-03-17T05:05:06;29.90;;;9.80;;
33495;SDS011;19836;55.812;37.560;2024-03-17T05:07:34;20.70;;;9.52;;
33495;SDS011;19836;55.812;37.560;2024-03-17T05:10:00;19.58;;;8.52;;
33495;SDS011;19836;55.812;37.560;2024-03-17T05:12:27;21.08;;;8.65;;
33495;SDS011;19836;55.812;37.560;2024-03-17T05:14:53;18.73;;;9.23;;
33495;SDS011;19836;55.812;37.560;2024-03-17T05:17:19;21.92;;;8.48;;
33495;SDS011;19836;55.812;37.560;2024-03-17T05:19:45;26.30;;;8.65;;
33495;SDS011;19836;55.812;37.560;2024-03-17T05:22:11;21.48;;;9.10;;
33495;SDS011;19836;55.812;37.560;2024-03-17T05:24:37;26.65;;;9.13;;
33495;SDS011;19836;55.812;37.560;2024-03-17T05:27:03;23.88;;;8.77;;
33495;SDS011;19836;55.812;37.560;2024-03-17T05:29:29;25.85;;;9.32;;
33495;SDS011;19836;55.812;37.560;2024-03-17T05:31:55;26.67;;;8.27;;
33495;SDS011;19836;55.812;37.560;2024-03-17T05:34:21;29.95;;;9.25;;
33495;SDS011;19836;55.812;37.560;2024-03-17T05:36:52;31.77;;;8.85;;
33495;SDS011;19836;55.812;37.560;2024-03-17T05:39:18;22.60;;;8.95;;
33495;SDS011;19836;55.812;37.560;2024-03-17T05:41:45;28.55;;;9.05;;
33495;SDS011;19836;55.812;37.560;2024-03-17T05:44:15;19.90;;;8.75;;
33495;SDS011;19836;55.812;37.560;2024-03-17T05:46:41;22.27;;;8.18;;
33495;SDS011;19836;55.812;37.560;2024-03-17T05:49:07;17.55;;;8.07;;
33495;SDS011;19836;55.812;37.560;2024-03-17T05:51:33;22.63;;;7.70;;
33495;SDS011;19836;55.812;37.560;2024-03-17T05:53:59;24.30;;;8.88;;
33495;SDS011;19836;55.812;37.560;2024-03-17T05:56:28;22.40;;;8.48;;
33495;SDS011;19836;55.812;37.560;2024-03-17T05:58:54;25.77;;;8.60;;
33495;SDS011;19836;55.812;37.560;2024-03-17T06:01:24;19.33;;;9.68;;
33495;SDS011;19836;55.812;37.560;2024-03-17T06:03:50;27.33;;;9.82;;
33495;SDS011;19836;55.812;37.560;2024-03-17T06:06:16;21.23;;;8.75;;
33495;SDS011;19836;55.812;37.560;2024-03-17T06:08:42;23.30;;;8.68;;
33495;SDS011;19836;55.812;37.560;2024-03-17T06:11:08;24.60;;;9.60;;
33495;SDS011;19836;55.812;37.560;2024-03-17T06:13:37;19.85;;;9.55;;
33495;SDS011;19836;55.812;37.560;2024-03-17T06:16:03;22.80;;;10.05;;
33495;SDS011;19836;55.812;37.560;2024-03-17T06:18:31;23.08;;;8.85;;
33495;SDS011;19836;55.812;37.560;2024-03-17T06:20:58;26.55;;;10.70;;
33495;SDS011;19836;55.812;37.560;2024-03-17T06:23:24;25.05;;;9.48;;
33495;SDS011;19836;55.812;37.560;2024-03-17T06:25:52;23.23;;;9.23;;
33495;SDS011;19836;55.812;37.560;2024-03-17T06:28:20;22.33;;;9.73;;
33495;SDS011;19836;55.812;37.560;2024-03-17T06:30:59;24.20;;;10.48;;
33495;SDS011;19836;55.812;37.560;2024-03-17T06:33:26;20.40;;;10.50;;
33495;SDS011;19836;55.812;37.560;2024-03-17T06:35:57;24.48;;;10.18;;
33495;SDS011;19836;55.812;37.560;2024-03-17T06:38:28;25.33;;;10.65;;
33495;SDS011;19836;55.812;37.560;2024-03-17T06:40:53;23.33;;;11.18;;
33495;SDS011;19836;55.812;37.560;2024-03-17T06:43:19;27.17;;;10.52;;
33495;SDS011;19836;55.812;37.560;2024-03-17T06:45:58;26.75;;;10.02;;
33495;SDS011;19836;55.812;37.560;2024-03-17T06:48:26;20.23;;;10.40;;
33495;SDS011;19836;55.812;37.560;2024-03-17T06:50:53;22.13;;;10.65;;
33495;SDS011;19836;55.812;37.560;2024-03-17T06:53:23;31.02;;;10.18;;
33495;SDS011;19836;55.812;37.560;2024-03-17T06:58:26;30.75;;;11.43;;
33495;SDS011;19836;55.812;37.560;2024-03-17T07:08:03;19.67;;;10.93;;
33495;SDS011;19836;55.812;37.560;2024-03-17T07:10:38;23.73;;;12.10;;
33495;SDS011;19836;55.812;37.560;2024-03-17T07:31:25;21.40;;;10.90;;
33495;SDS011;19836;55.812;37.560;2024-03-17T07:37:32;27.38;;;11.63;;
33495;SDS011;19836;55.812;37.560;2024-03-17T07:39:58;31.90;;;12.13;;
33495;SDS011;19836;55.812;37.560;2024-03-17T07:42:28;22.85;;;11.25;;
33495;SDS011;19836;55.812;37.560;2024-03-17T07:44:58;32.08;;;12.13;;
33495;SDS011;19836;55.812;37.560;2024-03-17T07:47:25;28.40;;;15.35;;
33495;SDS011;19836;55.812;37.560;2024-03-17T07:49:58;20.80;;;10.70;;
33495;SDS011;19836;55.812;37.560;2024-03-17T07:52:31;26.58;;;11.93;;
33495;SDS011;19836;55.812;37.560;2024-03-17T08:17:41;27.98;;;10.98;;
33495;SDS011;19836;55.812;37.560;2024-03-17T08:21:21;32.67;;;11.98;;
33495;SDS011;19836;55.812;37.560;2024-03-17T08:24:31;30.40;;;12.00;;
33495;SDS011;19836;55.812;37.560;2024-03-17T08:37:43;29.90;;;12.27;;
33495;SDS011;19836;55.812;37.560;2024-03-17T08:40:11;28.15;;;12.95;;
33495;SDS011;19836;55.812;37.560;2024-03-17T08:42:40;35.00;;;12.80;;
33495;SDS011;19836;55.812;37.560;2024-03-17T08:45:08;32.33;;;13.02;;
33495;SDS011;19836;55.812;37.560;2024-03-17T08:47:42;32.40;;;13.20;;
33495;SDS011;19836;55.812;37.560;2024-03-17T08:50:12;29.15;;;12.90;;
33495;SDS011;19836;55.812;37.560;2024-03-17T08:52:38;33.25;;;12.57;;
33495;SDS011;19836;55.812;37.560;2024-03-17T08:55:05;27.63;;;12.82;;
33495;SDS011;19836;55.812;37.560;2024-03-17T08:57:35;33.95;;;11.48;;
33495;SDS011;19836;55.812;37.560;2024-03-17T09:00:01;26.27;;;11.98;;
33495;SDS011;19836;55.812;37.560;2024-03-17T09:02:29;24.88;;;11.52;;
33495;SDS011;19836;55.812;37.560;2024-03-17T09:04:55;36.25;;;13.30;;
33495;SDS011;19836;55.812;37.560;2024-03-17T09:07:21;27.67;;;11.40;;
33495;SDS011;19836;55.812;37.560;2024-03-17T09:09:47;29.95;;;12.20;;
33495;SDS011;19836;55.812;37.560;2024-03-17T09:12:13;28.52;;;10.93;;
33495;SDS011;19836;55.812;37.560;2024-03-17T09:14:39;33.10;;;11.70;;
33495;SDS011;19836;55.812;37.560;2024-03-17T09:17:06;32.08;;;11.85;;
33495;SDS011;19836;55.812;37.560;2024-03-17T09:19:32;22.45;;;11.05;;
33495;SDS011;19836;55.812;37.560;2024-03-17T09:21:58;19.38;;;10.65;;
33495;SDS011;19836;55.812;37.560;2024-03-17T09:24:25;27.08;;;10.60;;
33495;SDS011;19836;55.812;37.560;2024-03-17T09:26:52;24.80;;;10.43;;
33495;SDS011;19836;55.812;37.560;2024-03-17T09:29:18;30.17;;;10.68;;
33495;SDS011;19836;55.812;37.560;2024-03-17T09:31:45;29.25;;;11.05;;
33495;SDS011;19836;55.812;37.560;2024-03-17T10:02:27;30.42;;;10.73;;
33495;SDS011;19836;55.812;37.560;2024-03-17T10:07:52;24.58;;;10.23;;
33495;SDS011;19836;55.812;37.560;2024-03-17T10:10:20;25.70;;;9.25;;
33495;SDS011;19836;55.812;37.560;2024-03-17T10:12:50;24.75;;;11.60;;
33495;SDS011;19836;55.812;37.560;2024-03-17T10:15:24;28.75;;;9.70;;
33495;SDS011;19836;55.812;37.560;2024-03-17T10:18:21;24.48;;;11.15;;
33495;SDS011;19836;55.812;37.560;2024-03-17T10:20:48;22.25;;;10.10;;
33495;SDS011;19836;55.812;37.560;2024-03-17T10:23:20;28.08;;;9.43;;
33495;SDS011;19836;55.812;37.560;2024-03-17T10:25:46;29.23;;;9.50;;
33495;SDS011;19836;55.812;37.560;2024-03-17T10:28:13;24.02;;;9.30;;
33495;SDS011;19836;55.812;37.560;2024-03-17T10:30:40;24.13;;;9.30;;
33495;SDS011;19836;55.812;37.560;2024-03-17T10:33:21;22.67;;;11.88;;
33495;SDS011;19836;55.812;37.560;2024-03-17T10:38:23;19.90;;;8.48;;
33495;SDS011;19836;55.812;37.560;2024-03-17T10:40:49;22.60;;;9.10;;
33495;SDS011;19836;55.812;37.560;2024-03-17T10:43:18;20.45;;;7.88;;
33495;SDS011;19836;55.812;37.560;2024-03-17T10:45:53;26.02;;;9.40;;
33495;SDS011;19836;55.812;37.560;2024-03-17T10:48:21;19.17;;;8.13;;
33495;SDS011;19836;55.812;37.560;2024-03-17T10:51:47;16.88;;;7.72;;
33495;SDS011;19836;55.812;37.560;2024-03-17T10:54:25;22.45;;;7.40;;
33495;SDS011;19836;55.812;37.560;2024-03-17T11:01:04;15.38;;;7.70;;
33495;SDS011;19836;55.812;37.560;2024-03-17T11:07:22;23.83;;;7.95;;
33495;SDS011;19836;55.812;37.560;2024-03-17T11:09:52;17.77;;;6.20;;
33495;SDS011;19836;55.812;37.560;2024-03-17T11:17:45;12.70;;;5.85;;
33495;SDS011;19836;55.812;37.560;2024-03-17T11:22:54;19.45;;;6.15;;
33495;SDS011;19836;55.812;37.560;2024-03-17T11:28:04;11.65;;;5.45;;
33495;SDS011;19836;55.812;37.560;2024-03-17T11:36:39;17.30;;;7.50;;
33495;SDS011;19836;55.812;37.560;2024-03-17T11:39:11;14.82;;;6.55;;
33495;SDS011;19836;55.812;37.560;2024-03-17T11:43:16;14.63;;;5.25;;
33495;SDS011;19836;55.812;37.560;2024-03-17T11:45:45;14.55;;;6.72;;
33495;SDS011;19836;55.812;37.560;2024-03-17T11:48:12;16.52;;;6.10;;
33495;SDS011;19836;55.812;37.560;2024-03-17T11:50:44;16.58;;;5.90;;
33495;SDS011;19836;55.812;37.560;2024-03-17T11:53:10;13.90;;;5.50;;
33495;SDS011;19836;55.812;37.560;2024-03-17T11:55:36;13.45;;;6.90;;
33495;SDS011;19836;55.812;37.560;2024-03-17T11:58:02;19.52;;;6.05;;
33495;SDS011;19836;55.812;37.560;2024-03-17T12:00:28;16.45;;;9.13;;
33495;SDS011;19836;55.812;37.560;2024-03-17T12:02:54;17.45;;;6.85;;
33495;SDS011;19836;55.812;37.560;2024-03-17T12:05:23;18.05;;;5.97;;
33495;SDS011;19836;55.812;37.560;2024-03-17T12:07:50;17.38;;;6.30;;
33495;SDS011;19836;55.812;37.560;2024-03-17T12:10:22;16.20;;;5.82;;
33495;SDS011;19836;55.812;37.560;2024-03-17T12:12:52;17.02;;;5.88;;
33495;SDS011;19836;55.812;37.560;2024-03-17T12:15:25;20.33;;;6.47;;
33495;SDS011;19836;55.812;37.560;2024-03-17T12:17:57;18.70;;;6.40;;
33495;SDS011;19836;55.812;37.560;2024-03-17T12:21:24;15.60;;;5.25;;
33495;SDS011;19836;55.812;37.560;2024-03-17T12:26:47;24.85;;;7.40;;
33495;SDS011;19836;55.812;37.560;2024-03-17T12:32:13;15.38;;;5.85;;
33495;SDS011;19836;55.812;37.560;2024-03-17T12:37:48;21.98;;;6.90;;
33495;SDS011;19836;55.812;37.560;2024-03-17T12:40:25;18.30;;;7.05;;
33495;SDS011;19836;55.812;37.560;2024-03-17T12:43:03;23.80;;;6.72;;
33495;SDS011;19836;55.812;37.560;2024-03-17T12:45:32;26.23;;;8.48;;
33495;SDS011;19836;55.812;37.560;2024-03-17T12:57:04;24.63;;;6.80;;
33495;SDS011;19836;55.812;37.560;2024-03-17T12:59:51;22.75;;;6.00;;
33495;SDS011;19836;55.812;37.560;2024-03-17T13:02:21;22.50;;;6.17;;
33495;SDS011;19836;55.812;37.560;2024-03-17T13:08:08;23.70;;;7.03;;
33495;SDS011;19836;55.812;37.560;2024-03-17T13:11:01;19.05;;;6.40;;
33495;SDS011;19836;55.812;37.560;2024-03-17T13:13:59;23.75;;;6.03;;
33495;SDS011;19836;55.812;37.560;2024-03-17T13:40:52;22.38;;;10.30;;
33495;SDS011;19836;55.812;37.560;2024-03-17T13:48:18;26.85;;;6.55;;
33495;SDS011;19836;55.812;37.560;2024-03-17T13:50:51;24.27;;;7.05;;
33495;SDS011;19836;55.812;37.560;2024-03-17T13:53:18;25.57;;;6.63;;
33495;SDS011;19836;55.812;37.560;2024-03-17T13:55:45;16.85;;;6.97;;
33495;SDS011;19836;55.812;37.560;2024-03-17T13:58:12;22.17;;;8.80;;
33495;SDS011;19836;55.812;37.560;2024-03-17T14:04:15;24.40;;;6.32;;
33495;SDS011;19836;55.812;37.560;2024-03-17T14:06:43;22.33;;;7.70;;
33495;SDS011;19836;55.812;37.560;2024-03-17T14:09:14;27.10;;;6.82;;
33495;SDS011;19836;55.812;37.560;2024-03-17T14:11:43;23.25;;;6.47;;
33495;SDS011;19836;55.812;37.560;2024-03-17T14:20:05;18.92;;;6.68;;
33495;SDS011;19836;55.812;37.560;2024-03-17T14:23:08;17.75;;;6.18;;
33495;SDS011;19836;55.812;37.560;2024-03-17T14:25:39;15.38;;;6.35;;
33495;SDS011;19836;55.812;37.560;2024-03-17T14:28:05;18.92;;;6.65;;
33495;SDS011;19836;55.812;37.560;2024-03-17T14:30:33;21.85;;;6.95;;
33495;SDS011;19836;55.812;37.560;2024-03-17T14:33:07;16.40;;;6.10;;
33495;SDS011;19836;55.812;37.560;2024-03-17T14:35:36;15.38;;;6.82;;
33495;SDS011;19836;55.812;37.560;2024-03-17T14:38:09;21.52;;;6.57;;
33495;SDS011;19836;55.812;37.560;2024-03-17T14:48:19;19.42;;;7.32;;
33495;SDS011;19836;55.812;37.560;2024-03-17T14:50:49;17.58;;;6.55;;
33495;SDS011;19836;55.812;37.560;2024-03-17T14:53:15;21.30;;;7.43;;
33495;SDS011;19836;55.812;37.560;2024-03-17T14:55:42;17.55;;;7.28;;
33495;SDS011;19836;55.812;37.560;2024-03-17T14:58:11;16.67;;;7.03;;
33495;SDS011;19836;55.812;37.560;2024-03-17T15:00:39;20.67;;;8.10;;
33495;SDS011;19836;55.812;37.560;2024-03-17T15:03:10;25.70;;;7.68;;
33495;SDS011;19836;55.812;37.560;2024-03-17T15:05:43;22.42;;;7.00;;
33495;SDS011;19836;55.812;37.560;2024-03-17T15:08:12;20.50;;;6.45;;
33495;SDS011;19836;55.812;37.560;2024-03-17T15:10:41;30.38;;;7.35;;
33495;SDS011;19836;55.812;37.560;2024-03-17T15:13:08;21.45;;;6.88;;
33495;SDS011;19836;55.812;37.560;2024-03-17T15:18:31;18.83;;;6.82;;
33495;SDS011;19836;55.812;37.560;2024-03-17T15:21:00;28.63;;;7.32;;
33495;SDS011;19836;55.812;37.560;2024-03-17T15:24:30;27.42;;;6.82;;
33495;SDS011;19836;55.812;37.560;2024-03-17T15:27:05;26.35;;;7.03;;
33495;SDS011;19836;55.812;37.560;2024-03-17T15:29:32;26.02;;;7.32;;
33495;SDS011;19836;55.812;37.560;2024-03-17T15:32:01;24.17;;;7.20;;
33495;SDS011;19836;55.812;37.560;2024-03-17T15:34:43;22.02;;;7.72;;
33495;SDS011;19836;55.812;37.560;2024-03-17T15:37:31;23.45;;;7.65;;
33495;SDS011;19836;55.812;37.560;2024-03-17T15:40:00;24.38;;;7.50;;
33495;SDS011;19836;55.812;37.560;2024-03-17T15:43:19;26.58;;;7.18;;
33495;SDS011;19836;55.812;37.560;2024-03-17T15:45:46;26.63;;;6.95;;
33495;SDS011;19836;55.812;37.560;2024-03-17T15:48:15;28.13;;;7.15;;
33495;SDS011;19836;55.812;37.560;2024-03-17T15:50:52;20.23;;;6.55;;
33495;SDS011;19836;55.812;37.560;2024-03-17T15:56:18;21.55;;;6.68;;
33495;SDS011;19836;55.812;37.560;2024-03-17T15:58:47;26.25;;;6.35;;
33495;SDS011;19836;55.812;37.560;2024-03-17T16:01:16;29.42;;;7.40;;
33495;SDS011;19836;55.812;37.560;2024-03-17T16:03:45;26.90;;;6.63;;
33495;SDS011;19836;55.812;37.560;2024-03-17T16:06:12;22.35;;;6.85;;
33495;SDS011;19836;55.812;37.560;2024-03-17T16:08:44;28.25;;;7.53;;
33495;SDS011;19836;55.812;37.560;2024-03-17T16:11:12;28.15;;;7.50;;
33495;SDS011;19836;55.812;37.560;2024-03-17T16:13:39;27.40;;;7.25;;
33495;SDS011;19836;55.812;37.560;2024-03-17T16:16:07;20.40;;;6.60;;
33495;SDS011;19836;55.812;37.560;2024-03-17T16:18:45;36.10;;;7.28;;
33495;SDS011;19836;55.812;37.560;2024-03-17T16:21:22;29.65;;;6.70;;
33495;SDS011;19836;55.812;37.560;2024-03-17T16:24:01;27.05;;;6.07;;
33495;SDS011;19836;55.812;37.560;2024-03-17T16:26:34;23.27;;;7.03;;
33495;SDS011;19836;55.812;37.560;2024-03-17T16:29:07;25.40;;;7.40;;
33495;SDS011;19836;55.812;37.560;2024-03-17T16:32:11;23.98;;;6.22;;
33495;SDS011;19836;55.812;37.560;2024-03-17T16:34:40;29.42;;;7.68;;
33495;SDS011;19836;55.812;37.560;2024-03-17T16:37:09;22.35;;;5.55;;
33495;SDS011;19836;55.812;37.560;2024-03-17T16:39:36;31.65;;;6.53;;
33495;SDS011;19836;55.812;37.560;2024-03-17T16:42:02;23.98;;;6.10;;
33495;SDS011;19836;55.812;37.560;2024-03-17T16:44:45;31.80;;;6.47;;
33495;SDS011;19836;55.812;37.560;2024-03-17T16:47:31;28.83;;;6.75;;
33495;SDS011;19836;55.812;37.560;2024-03-17T16:50:04;30.25;;;6.70;;
33495;SDS011;19836;55.812;37.560;2024-03-17T16:52:35;17.58;;;5.90;;
33495;SDS011;19836;55.812;37.560;2024-03-17T16:55:04;28.60;;;6.60;;
33495;SDS011;19836;55.812;37.560;2024-03-17T16:57:32;27.63;;;6.40;;
33495;SDS011;19836;55.812;37.560;2024-03-17T17:00:03;26.17;;;6.45;;
33495;SDS011;19836;55.812;37.560;2024-03-17T17:02:40;25.70;;;6.70;;
33495;SDS011;19836;55.812;37.560;2024-03-17T17:05:10;26.52;;;7.45;;
33495;SDS011;19836;55.812;37.560;2024-03-17T17:07:43;28.15;;;7.35;;
33495;SDS011;19836;55.812;37.560;2024-03-17T17:10:15;30.80;;;8.70;;
33495;SDS011;19836;55.812;37.560;2024-03-17T17:12:47;31.30;;;6.82;;
33495;SDS011;19836;55.812;37.560;2024-03-17T17:15:13;30.02;;;6.55;;
33495;SDS011;19836;55.812;37.560;2024-03-17T17:17:44;28.13;;;7.93;;
33495;SDS011;19836;55.812;37.560;2024-03-17T17:20:13;29.48;;;8.40;;
33495;SDS011;19836;55.812;37.560;2024-03-17T17:25:52;34.15;;;7.00;;
33495;SDS011;19836;55.812;37.560;2024-03-17T17:49:38;29.77;;;7.20;;
33495;SDS011;19836;55.812;37.560;2024-03-17T17:52:08;26.42;;;7.05;;
33495;SDS011;19836;55.812;37.560;2024-03-17T17:54:35;28.17;;;7.03;;
33495;SDS011;19836;55.812;37.560;2024-03-17T17:57:04;26.08;;;6.60;;
33495;SDS011;19836;55.812;37.560;2024-03-17T17:59:35;32.90;;;7.65;;
33495;SDS011;19836;55.812;37.560;2024-03-17T18:02:06;24.95;;;6.82;;
33495;SDS011;19836;55.812;37.560;2024-03-17T18:04:33;31.33;;;8.65;;
33495;SDS011;19836;55.812;37.560;2024-03-17T18:07:08;33.80;;;7.88;;
33495;SDS011;19836;55.812;37.560;2024-03-17T18:09:34;34.83;;;8.43;;
33495;SDS011;19836;55.812;37.560;2024-03-17T18:12:00;33.45;;;7.18;;
33495;SDS011;19836;55.812;37.560;2024-03-17T18:14:27;33.53;;;7.63;;
33495;SDS011;19836;55.812;37.560;2024-03-17T18:16:53;27.27;;;7.00;;
33495;SDS011;19836;55.812;37.560;2024-03-17T18:22:20;35.47;;;7.97;;